»·PEaware :: SCARE14 KGEG-KSEA

SCARE14 :: KGEG-KSEA

FLIGHT INFORMATION

Flight Status: Arrived
Operator: Unknown
More flights by this operator :: More flights under this callsign
Pilot: Wishart J. (22283)
Aircraft: BEECH AIRCRAFT T-6A TEXAN
(TEX2)
More flights by this aircraft type
Origin: KGEG Spokane Intl
United States
Destination: KSEA Seattle-Tacoma Intl
United States
More flights between these airports :: More routes between these airports
Route: GEG GLASR1
File this flight plan on PilotEdge
Remarks:
Altitude:
(Current/Filed)
16,000ft
Speed:
(Current/Filed)
270kts
Departed: 04-Feb-21 07:35 AM
Arrived: 04-Feb-21 08:13 AM
Distance/Time
Traveled:
194nm/0:38
Distance/Time
To Go:
Arrived

Flight Plot

Page will automatically refresh every two minutes.

Flight plan parsing failed; only flown route is shown


Map Options




Map Legend


Flown Route
Filed Route
Departure Airport
Arrival Airport
Navaid (VOR, NDB)
Fix

Horizontal Profiles

Position Reports

Time Latitude Longitude Heading Altitude Ground
Speed
04-Feb-21 07:11 47.625802 -117.535157 217 2357ft 0kts
04-Feb-21 07:13 47.625802 -117.535157 217 2357ft 0kts
04-Feb-21 07:19 47.625795 -117.535166 217 2357ft 0kts
04-Feb-21 07:20 47.625795 -117.535166 217 2357ft 0kts
04-Feb-21 07:21 47.625795 -117.535166 217 2357ft 0kts
04-Feb-21 07:22 47.625795 -117.535166 217 2357ft 0kts
04-Feb-21 07:23 47.625795 -117.535166 217 2357ft 0kts
04-Feb-21 07:24 47.625795 -117.535166 217 2357ft 0kts
04-Feb-21 07:25 47.625795 -117.535166 217 2357ft 0kts
04-Feb-21 07:26 47.625792 -117.535270 309 2357ft 1kts
04-Feb-21 07:27 47.625030 -117.532415 112 2353ft 13kts
04-Feb-21 07:28 47.627279 -117.528244 43 2347ft 17kts
04-Feb-21 07:29 47.631568 -117.521761 44 2331ft 22kts
04-Feb-21 07:30 47.631858 -117.519461 133 2325ft 0kts
04-Feb-21 07:31 47.631858 -117.519461 133 2325ft 0kts
04-Feb-21 07:32 47.631858 -117.519461 133 2325ft 0kts
04-Feb-21 07:33 47.631672 -117.519168 134 2324ft 16kts
04-Feb-21 07:34 47.612709 -117.545266 228 3383ft 172kts
04-Feb-21 07:35 47.604858 -117.612515 276 6642ft 182kts
04-Feb-21 07:36 47.609916 -117.687873 281 10232ft 195kts
04-Feb-21 07:37 47.620951 -117.766313 278 13910ft 203kts
04-Feb-21 07:38 47.630877 -117.855069 279 16120ft 257kts
04-Feb-21 07:39 47.638332 -117.972275 274 15902ft 301kts
04-Feb-21 07:40 47.619423 -118.088887 256 16145ft 293kts
04-Feb-21 07:41 47.610576 -118.208375 273 15993ft 291kts
04-Feb-21 07:42 47.619707 -118.326688 281 16089ft 290kts
04-Feb-21 07:43 47.643242 -118.519598 275 15995ft 292kts
04-Feb-21 07:44 47.656865 -118.758694 272 16017ft 295kts
04-Feb-21 07:45 47.672552 -119.000129 280 15906ft 298kts
04-Feb-21 07:46 47.687769 -119.242268 278 16042ft 297kts
04-Feb-21 07:47 47.712423 -119.483660 280 16039ft 297kts
04-Feb-21 07:48 47.736960 -119.722122 277 16006ft 295kts
04-Feb-21 07:49 47.748533 -119.964759 274 15938ft 296kts
04-Feb-21 07:50 47.760030 -120.206595 274 15914ft 297kts
04-Feb-21 07:51 47.775441 -120.448827 278 16099ft 294kts
04-Feb-21 07:52 47.795335 -120.689295 277 16109ft 296kts
04-Feb-21 07:53 47.820689 -120.931030 278 16150ft 293kts
04-Feb-21 07:54 47.842449 -121.172399 278 16123ft 289kts
04-Feb-21 07:55 47.869206 -121.398471 280 13035ft 272kts
04-Feb-21 07:56 47.884381 -121.616891 274 9466ft 272kts
04-Feb-21 07:57 47.874583 -121.756591 221 9599ft 274kts
04-Feb-21 07:58 47.814156 -121.820924 219 7778ft 270kts
04-Feb-21 07:59 47.787963 -121.915781 259 5190ft 252kts
04-Feb-21 08:00 47.775644 -122.016495 260 4538ft 246kts
04-Feb-21 08:01 47.761370 -122.106500 257 4533ft 205kts
04-Feb-21 08:02 47.748248 -122.184426 256 3537ft 184kts
04-Feb-21 08:03 47.735312 -122.254319 253 3479ft 171kts
04-Feb-21 08:04 47.704138 -122.299644 206 2828ft 166kts
04-Feb-21 08:05 47.665659 -122.305711 183 2669ft 140kts
04-Feb-21 08:06 47.622213 -122.305583 184 2500ft 161kts
04-Feb-21 08:07 47.580416 -122.307307 178 2604ft 127kts
04-Feb-21 08:08 47.551934 -122.304725 191 2155ft 93kts
04-Feb-21 08:09 47.526233 -122.307550 180 1651ft 91kts
04-Feb-21 08:10 47.499054 -122.307623 179 1118ft 105kts
04-Feb-21 08:11 47.472090 -122.307602 182 633ft 94kts
04-Feb-21 08:12 47.452862 -122.307683 158 418ft 19kts
04-Feb-21 08:13 47.451697 -122.306293 171 413ft 10kts

Navigation Log

Ident Type
Flight plan parsing failed, navigation log unavailable